createdAt,value
2023-05-09T00:02:34.902Z,1.20
2023-05-09T00:07:37.944Z,1.00
2023-05-09T00:12:42.068Z,1.25
2023-05-09T00:17:46.169Z,1.27
2023-05-09T00:27:51.681Z,1.33
2023-05-09T00:32:54.955Z,1.60
2023-05-09T00:37:57.715Z,1.38
2023-05-09T00:43:00.787Z,1.50
2023-05-09T00:48:03.692Z,1.70
2023-05-09T00:53:06.786Z,1.30
2023-05-09T00:58:09.797Z,1.48
2023-05-09T01:03:13.005Z,1.10
2023-05-09T01:08:31.835Z,1.25
2023-05-09T01:13:43.613Z,1.02
2023-05-09T01:18:49.316Z,1.27
2023-05-09T01:24:07.748Z,1.20
2023-05-09T01:29:18.483Z,1.60
2023-05-09T01:34:23.408Z,1.40
2023-05-09T01:39:27.420Z,2.40
2023-05-09T01:44:36.418Z,1.75
2023-05-09T01:49:40.664Z,2.17
2023-05-09T01:54:44.934Z,2.03
2023-05-09T01:59:49.399Z,2.10
2023-05-09T02:04:52.509Z,2.10
2023-05-09T02:09:56.778Z,2.20
2023-05-09T02:14:59.773Z,2.60
2023-05-09T02:20:02.685Z,2.40
2023-05-09T02:25:25.365Z,2.80
2023-05-09T02:30:31.559Z,2.70
2023-05-09T02:35:34.841Z,2.72
2023-05-09T02:40:37.593Z,2.58
2023-05-09T02:45:40.623Z,2.78
2023-05-09T02:50:43.796Z,3.15
2023-05-09T02:55:46.931Z,2.60
2023-05-09T03:00:49.756Z,2.72
2023-05-09T03:05:52.628Z,2.70
2023-05-09T03:10:55.710Z,2.20
2023-05-09T03:15:59.333Z,2.70
2023-05-09T03:21:02.394Z,2.80
2023-05-09T03:26:06.660Z,2.60
2023-05-09T03:31:09.943Z,2.45
2023-05-09T03:36:13.040Z,2.28
2023-05-09T03:41:19.108Z,2.55
2023-05-09T03:46:24.125Z,3.15
2023-05-09T03:51:27.458Z,2.38
2023-05-09T03:56:32.345Z,2.80
2023-05-09T04:01:35.423Z,2.50
2023-05-09T04:06:39.840Z,2.28
2023-05-09T04:11:45.266Z,2.05
2023-05-09T04:16:49.581Z,2.08
2023-05-09T04:21:52.739Z,2.08
2023-05-09T04:26:55.639Z,2.45
2023-05-09T04:32:02.436Z,1.20
2023-05-09T04:37:05.934Z,1.90
2023-05-09T04:42:09.077Z,1.38
2023-05-09T04:47:11.891Z,2.42
2023-05-09T04:52:14.822Z,1.30
2023-05-09T04:57:19.145Z,1.33
2023-05-09T05:02:28.605Z,2.28
2023-05-09T05:07:31.850Z,1.75
2023-05-09T05:12:35.470Z,1.30
2023-05-09T05:17:38.705Z,1.60
2023-05-09T05:22:43.423Z,4.03
2023-05-09T05:27:46.273Z,1.65
2023-05-09T05:32:49.219Z,2.22
2023-05-09T05:37:55.154Z,3.22
2023-05-09T05:42:58.959Z,2.30
2023-05-09T05:48:03.238Z,2.83
2023-05-09T05:53:07.503Z,1.85
2023-05-09T05:58:10.809Z,1.40
2023-05-09T06:03:14.908Z,1.30
2023-05-09T06:08:23.399Z,1.52
2023-05-09T06:13:26.734Z,1.40
2023-05-09T06:18:38.134Z,1.60
2023-05-09T06:23:51.072Z,1.55
2023-05-09T06:29:04.768Z,2.10
2023-05-09T06:34:07.699Z,1.75
2023-05-09T06:39:10.412Z,2.00
2023-05-09T06:44:13.023Z,2.20
2023-05-09T06:49:15.743Z,1.98
2023-05-09T06:54:18.776Z,2.53
2023-05-09T06:59:21.698Z,1.73
2023-05-09T07:04:24.587Z,1.65
2023-05-09T07:09:29.090Z,2.10
2023-05-09T07:14:32.167Z,2.28
2023-05-09T07:19:35.061Z,2.17
2023-05-09T07:24:38.037Z,1.92
2023-05-09T07:29:40.808Z,2.15
2023-05-09T07:34:43.566Z,2.42
2023-05-09T07:39:47.804Z,2.33
2023-05-09T07:44:51.001Z,1.60
2023-05-09T07:49:53.798Z,1.70
2023-05-09T07:54:56.697Z,2.42
2023-05-09T07:59:59.786Z,2.00
2023-05-09T08:05:02.736Z,1.60
2023-05-09T08:10:06.754Z,2.70
2023-05-09T08:15:12.375Z,2.08
2023-05-09T08:20:15.456Z,2.10
2023-05-09T08:25:18.621Z,1.80
2023-05-09T08:30:21.593Z,1.65
2023-05-09T08:35:25.126Z,2.30
2023-05-09T08:40:28.058Z,1.95
2023-05-09T08:45:31.228Z,1.40
2023-05-09T08:50:35.802Z,2.22
2023-05-09T08:55:38.845Z,2.55
2023-05-09T09:00:42.096Z,1.33
2023-05-09T09:05:45.494Z,1.88
2023-05-09T09:10:48.681Z,1.63
2023-05-09T09:15:53.452Z,2.15
2023-05-09T09:21:10.466Z,1.90
2023-05-09T09:26:14.062Z,1.70
2023-05-09T09:31:25.059Z,1.45
2023-05-09T09:36:32.717Z,1.33
2023-05-09T09:41:36.383Z,1.33
2023-05-09T09:46:43.104Z,1.50
2023-05-09T09:51:49.929Z,1.50
2023-05-09T09:56:55.170Z,1.38
2023-05-09T10:02:00.016Z,2.05
2023-05-09T10:07:04.070Z,1.30
2023-05-09T10:12:08.436Z,2.15
2023-05-09T10:17:14.114Z,1.40
2023-05-09T10:22:18.484Z,2.10
2023-05-09T10:27:22.890Z,1.73
2023-05-09T10:32:32.082Z,1.80
2023-05-09T10:37:35.866Z,1.40
2023-05-09T10:42:38.776Z,1.55
2023-05-09T10:47:42.743Z,1.90
2023-05-09T10:53:11.804Z,1.77
2023-05-09T10:58:21.368Z,2.00
2023-05-09T11:03:27.769Z,2.53
2023-05-09T11:08:31.545Z,1.25
2023-05-09T11:18:49.624Z,2.22
2023-05-09T11:23:55.119Z,2.30
2023-05-09T11:29:00.105Z,2.10
2023-05-09T11:34:05.144Z,1.70
2023-05-09T11:39:08.073Z,2.10
2023-05-09T11:44:16.048Z,1.80
2023-05-09T11:49:20.143Z,1.40
2023-05-09T11:54:24.049Z,2.13
2023-05-09T11:59:27.711Z,1.70
2023-05-09T12:04:34.269Z,2.17
2023-05-09T12:09:40.004Z,2.88
2023-05-09T12:14:42.986Z,2.00
2023-05-09T12:19:45.814Z,2.90
2023-05-09T12:24:49.927Z,2.00
2023-05-09T12:29:54.896Z,2.50
2023-05-09T12:34:58.418Z,2.10
2023-05-09T12:40:02.357Z,1.77
2023-05-09T12:45:09.124Z,2.00
2023-05-09T12:50:15.261Z,1.80
2023-05-09T12:55:19.137Z,1.67
2023-05-09T13:00:22.990Z,2.85
2023-05-09T13:05:25.943Z,2.22
2023-05-09T13:10:31.496Z,2.60
2023-05-09T13:15:34.496Z,2.47
2023-05-09T13:20:37.770Z,3.25
2023-05-09T13:25:41.341Z,2.15
2023-05-09T13:30:46.244Z,2.45
2023-05-09T13:35:49.235Z,2.30
2023-05-09T13:40:51.906Z,2.53
2023-05-09T13:45:54.977Z,2.88
2023-05-09T13:51:00.111Z,3.10
2023-05-09T13:56:03.417Z,2.97
2023-05-09T14:01:07.891Z,3.72
2023-05-09T14:06:12.985Z,2.72
2023-05-09T14:11:17.172Z,2.33
2023-05-09T14:16:23.260Z,3.30
2023-05-09T14:21:26.072Z,2.35
2023-05-09T14:26:28.885Z,2.25
2023-05-09T14:31:32.292Z,2.70
2023-05-09T14:36:35.222Z,2.60
2023-05-09T14:41:38.162Z,3.08
2023-05-09T14:46:40.963Z,2.95
2023-05-09T14:51:43.568Z,3.28
2023-05-09T14:56:46.410Z,2.50
2023-05-09T15:01:51.352Z,2.85
2023-05-09T15:06:54.235Z,3.60
2023-05-09T15:11:57.331Z,3.60
2023-05-09T15:17:03.389Z,3.38
2023-05-09T15:22:07.324Z,3.03
2023-05-09T15:27:10.442Z,3.60
2023-05-09T15:32:13.304Z,2.78
2023-05-09T15:37:16.079Z,2.17
2023-05-09T15:42:19.605Z,2.63
2023-05-09T15:47:22.682Z,2.85
2023-05-09T15:52:25.586Z,2.40
2023-05-09T15:57:28.494Z,2.75
2023-05-09T16:02:31.527Z,3.13
2023-05-09T16:07:35.667Z,2.70
2023-05-09T16:12:38.922Z,2.83
2023-05-09T16:17:41.812Z,3.22
2023-05-09T16:22:44.878Z,3.17
2023-05-09T16:27:48.012Z,3.10
2023-05-09T16:32:50.713Z,2.70
2023-05-09T16:37:53.498Z,3.20
2023-05-09T16:42:56.194Z,3.03
2023-05-09T16:48:00.057Z,2.90
2023-05-09T16:53:05.242Z,3.67
2023-05-09T16:58:08.138Z,2.88
2023-05-09T17:03:11.455Z,3.00
2023-05-09T17:08:14.652Z,3.22
2023-05-09T17:13:17.658Z,2.90
2023-05-09T17:18:33.214Z,5.65
2023-05-09T17:23:39.433Z,3.55
2023-05-09T17:28:42.250Z,3.15
2023-05-09T17:33:45.453Z,3.00
2023-05-09T17:38:48.148Z,2.95
2023-05-09T17:43:52.329Z,3.13
2023-05-09T17:48:55.606Z,2.95
2023-05-09T17:53:59.481Z,3.15
2023-05-09T17:59:02.494Z,3.55
2023-05-09T18:04:05.293Z,3.25
2023-05-09T18:09:08.305Z,3.30
2023-05-09T18:14:19.878Z,3.40
2023-05-09T18:19:22.684Z,2.47
2023-05-09T18:24:25.761Z,2.92
2023-05-09T18:29:28.904Z,3.35
2023-05-09T18:34:31.747Z,2.13
2023-05-09T18:39:34.368Z,3.75
2023-05-09T18:44:37.900Z,3.80
2023-05-09T18:49:40.844Z,4.43
2023-05-09T18:54:43.509Z,5.03
2023-05-09T18:59:46.712Z,4.97
2023-05-09T19:04:50.850Z,3.25
2023-05-09T19:09:53.585Z,2.40
2023-05-09T19:14:57.398Z,2.50
2023-05-09T19:20:01.167Z,1.90
2023-05-09T19:25:04.728Z,2.40
2023-05-09T19:30:08.182Z,3.85
2023-05-09T19:35:11.372Z,2.97
2023-05-09T19:40:14.764Z,2.20
2023-05-09T19:45:18.007Z,1.35
2023-05-09T19:50:21.300Z,1.55
2023-05-09T19:55:24.307Z,1.83
2023-05-09T20:00:27.634Z,1.40
2023-05-09T20:05:30.668Z,1.45
2023-05-09T20:10:34.618Z,1.63
2023-05-09T20:15:37.391Z,2.33
2023-05-09T20:20:40.087Z,2.15
2023-05-09T20:25:42.797Z,1.40
2023-05-09T20:30:45.825Z,1.40
2023-05-09T20:35:49.627Z,1.63
2023-05-09T20:40:52.308Z,1.17
2023-05-09T20:45:55.014Z,1.08
2023-05-09T20:50:57.981Z,1.48
2023-05-09T20:56:01.147Z,1.38
2023-05-09T21:01:04.048Z,1.35
2023-05-09T21:06:06.811Z,2.47
2023-05-09T21:11:09.673Z,1.80
2023-05-09T21:16:12.803Z,2.47
2023-05-09T21:21:15.552Z,2.65
2023-05-09T21:26:18.209Z,3.40
2023-05-09T21:31:21.096Z,3.80
2023-05-09T21:36:23.898Z,3.45
2023-05-09T21:41:28.176Z,2.58
2023-05-09T21:46:33.421Z,2.33
2023-05-09T21:51:36.332Z,2.50
2023-05-09T21:56:39.093Z,2.42
2023-05-09T22:01:43.727Z,3.22
2023-05-09T22:06:48.947Z,3.78
2023-05-09T22:11:53.118Z,2.72
2023-05-09T22:16:55.815Z,2.47
2023-05-09T22:21:58.596Z,1.98
2023-05-09T22:27:01.360Z,1.40
2023-05-09T22:32:04.696Z,2.20
2023-05-09T22:37:07.467Z,4.03
2023-05-09T22:42:11.573Z,3.17
2023-05-09T22:47:14.426Z,3.47
2023-05-09T22:52:17.424Z,4.18
2023-05-09T22:57:20.862Z,3.72
2023-05-09T23:02:23.656Z,3.90
2023-05-09T23:07:26.749Z,4.38
2023-05-09T23:12:29.771Z,3.03
2023-05-09T23:17:32.448Z,2.15
2023-05-09T23:22:35.283Z,2.22
2023-05-09T23:27:40.873Z,1.52
2023-05-09T23:32:43.575Z,2.80
2023-05-09T23:37:46.408Z,3.00
2023-05-09T23:42:49.124Z,3.03
2023-05-09T23:47:52.262Z,3.60
2023-05-09T23:52:54.882Z,3.60
2023-05-09T23:57:57.881Z,3.15
